Time;durP1;ratioP1;P1;durP2;ratioP2;P2;SDS_P1;SDS_P2;PMS_P1;PMS_P2;Temp;Humidity;BMP_temperature;BMP_pressure;BME280_temperature;BME280_humidity;BME280_pressure;Samples;Min_cycle;Max_cycle;Signal;HPM_P1;HPM_P2
2023/02/27 00:00:21;;;;;;;1.60;1.50;;;-0.30;99.90;;;;;;5039343;28;20242;-54
2023/02/27 00:02:51;;;;;;;5.43;2.20;;;-0.30;99.90;;;;;;5040417;28;20259;-51
2023/02/27 00:05:21;;;;;;;4.33;1.73;;;-0.20;99.90;;;;;;5046201;28;20308;-51
2023/02/27 00:07:48;;;;;;;3.43;1.70;;;-0.20;99.90;;;;;;5043355;28;20213;-50
2023/02/27 00:10:17;;;;;;;7.17;2.13;;;-0.30;99.90;;;;;;5031323;28;20233;-54
2023/02/27 00:12:44;;;;;;;5.13;1.93;;;-0.20;99.90;;;;;;5051567;28;20220;-53
2023/02/27 00:15:14;;;;;;;1.63;1.53;;;-0.20;99.90;;;;;;5038353;28;20251;-56
2023/02/27 00:17:41;;;;;;;1.93;1.77;;;-0.20;99.90;;;;;;5041676;28;20205;-51
2023/02/27 00:20:11;;;;;;;2.70;1.60;;;-0.20;99.90;;;;;;5042300;28;20728;-53
2023/02/27 00:22:38;;;;;;;2.63;1.80;;;-0.20;99.90;;;;;;5041053;28;20231;-49
2023/02/27 00:25:06;;;;;;;2.73;1.67;;;-0.20;99.90;;;;;;5053143;28;20192;-55
2023/02/27 00:27:35;;;;;;;8.40;1.83;;;-0.10;99.90;;;;;;5039378;28;20852;-50
2023/02/27 00:30:03;;;;;;;5.27;1.47;;;-0.20;99.90;;;;;;5043434;28;20212;-48
2023/02/27 00:32:30;;;;;;;4.87;2.30;;;-0.20;99.90;;;;;;5053728;28;20213;-50
2023/02/27 00:34:56;;;;;;;3.23;1.73;;;-0.20;99.90;;;;;;5042354;28;20223;-52
2023/02/27 00:37:23;;;;;;;4.83;1.60;;;-0.10;99.90;;;;;;5036564;28;20257;-53
2023/02/27 00:39:50;;;;;;;2.33;1.70;;;-0.10;99.90;;;;;;5044238;28;20232;-49
2023/02/27 00:42:17;;;;;;;2.10;1.57;;;-0.10;99.90;;;;;;5037439;28;20203;-51
2023/02/27 00:44:47;;;;;;;3.03;1.30;;;-0.10;99.90;;;;;;5047440;28;20280;-51
2023/02/27 00:47:14;;;;;;;5.77;2.53;;;-0.20;99.90;;;;;;5041935;28;20206;-53
2023/02/27 00:49:42;;;;;;;6.13;2.30;;;-0.20;99.90;;;;;;5048396;28;20240;-51
2023/02/27 00:52:09;;;;;;;3.60;2.10;;;-0.20;99.90;;;;;;5040947;28;20216;-55
2023/02/27 00:54:36;;;;;;;3.27;2.17;;;-0.30;99.90;;;;;;5037913;28;20214;-53
2023/02/27 00:57:03;;;;;;;2.43;1.63;;;-0.30;99.90;;;;;;5041919;28;20262;-52
2023/02/27 00:59:29;;;;;;;4.43;1.93;;;-0.40;99.90;;;;;;5042303;28;20208;-50
2023/02/27 01:01:57;;;;;;;3.63;1.97;;;-0.50;99.90;;;;;;5041537;28;20728;-54
2023/02/27 01:04:27;;;;;;;5.83;1.73;;;-0.60;99.90;;;;;;5037585;28;20203;-50
2023/02/27 01:06:55;;;;;;;2.50;1.80;;;-0.60;99.90;;;;;;5043688;28;20304;-51
2023/02/27 01:09:23;;;;;;;3.50;1.70;;;-0.70;99.90;;;;;;5033626;28;20211;-55
2023/02/27 01:11:52;;;;;;;3.53;1.40;;;-0.70;99.90;;;;;;5033440;28;20243;-53
2023/02/27 01:14:19;;;;;;;2.20;1.50;;;-0.70;99.90;;;;;;5043293;28;20291;-54
2023/02/27 01:16:46;;;;;;;4.10;1.77;;;-0.80;99.90;;;;;;5051303;28;20198;-53
2023/02/27 01:19:16;;;;;;;3.00;1.73;;;-0.80;99.90;;;;;;5050442;28;20203;-50
2023/02/27 01:21:43;;;;;;;3.43;1.63;;;-0.90;99.90;;;;;;5050416;28;20252;-53
2023/02/27 01:24:11;;;;;;;5.47;1.63;;;-0.90;99.90;;;;;;5051977;28;20202;-49
2023/02/27 01:26:38;;;;;;;2.43;1.73;;;-0.90;99.90;;;;;;5052322;28;20212;-50
2023/02/27 01:29:05;;;;;;;3.43;1.40;;;-1.00;99.90;;;;;;5051649;28;20201;-51
2023/02/27 01:31:32;;;;;;;1.60;1.50;;;-1.00;99.90;;;;;;5050807;28;20227;-53
2023/02/27 01:33:59;;;;;;;2.53;1.73;;;-1.00;99.90;;;;;;5041389;28;20216;-51
2023/02/27 01:36:27;;;;;;;2.67;1.70;;;-1.00;99.90;;;;;;5047882;28;20305;-51
2023/02/27 01:38:54;;;;;;;5.53;2.03;;;-1.00;99.90;;;;;;5037088;28;20558;-53
2023/02/27 01:41:21;;;;;;;4.93;2.07;;;-1.10;99.90;;;;;;5049520;28;20229;-51
2023/02/27 01:43:57;;;;;;;4.67;2.50;;;-1.10;99.90;;;;;;5035431;28;20659;-51
2023/02/27 01:46:25;;;;;;;5.47;2.20;;;-1.10;99.90;;;;;;5054550;28;20784;-48
2023/02/27 01:48:58;;;;;;;3.63;2.00;;;-1.20;99.90;;;;;;5047656;28;20206;-51
2023/02/27 01:51:31;;;;;;;3.40;2.20;;;-1.20;99.90;;;;;;5049275;28;20224;-48
2023/02/27 01:53:59;;;;;;;4.50;1.80;;;-1.30;99.90;;;;;;5046780;28;20288;-49
2023/02/27 01:56:29;;;;;;;2.93;2.07;;;-1.30;99.90;;;;;;5047444;28;20287;-50
2023/02/27 01:59:00;;;;;;;4.53;2.03;;;-1.30;99.90;;;;;;5048517;28;20944;-49
2023/02/27 02:01:27;;;;;;;3.07;2.07;;;-1.30;99.90;;;;;;5059333;28;20228;-52
2023/02/27 02:04:00;;;;;;;2.23;1.67;;;-1.30;99.90;;;;;;5045296;28;20626;-54
2023/02/27 02:06:35;;;;;;;2.00;1.80;;;-1.30;99.90;;;;;;5054074;28;20212;-51
2023/02/27 02:09:02;;;;;;;3.73;2.10;;;-1.30;99.90;;;;;;5059778;28;20221;-53
2023/02/27 02:11:30;;;;;;;2.40;1.93;;;-1.30;99.90;;;;;;5044160;28;20323;-54
2023/02/27 02:14:01;;;;;;;4.83;1.57;;;-1.30;99.90;;;;;;5033182;28;20227;-50
2023/02/27 02:16:49;;;;;;;1.83;1.70;;;-1.40;99.90;;;;;;5056665;28;20210;-52
2023/02/27 02:19:53;;;;;;;2.67;1.50;;;-1.40;99.90;;;;;;5055598;28;20281;-52
2023/02/27 02:22:54;;;;;;;3.23;1.70;;;-1.50;99.90;;;;;;5032924;28;20198;-49
2023/02/27 02:25:49;;;;;;;5.07;1.90;;;-1.50;99.90;;;;;;5040051;28;20221;-53
2023/02/27 02:28:36;;;;;;;5.87;2.07;;;-1.50;99.90;;;;;;5038139;28;20209;-53
2023/02/27 02:31:41;;;;;;;2.37;1.50;;;-1.50;99.90;;;;;;5037439;28;20223;-51
2023/02/27 02:34:39;;;;;;;5.20;2.17;;;-1.40;99.90;;;;;;5040553;28;20221;-53
2023/02/27 02:37:47;;;;;;;5.13;1.70;;;-1.40;99.90;;;;;;5047218;28;20572;-54
2023/02/27 02:40:30;;;;;;;2.73;1.60;;;-1.30;99.90;;;;;;5036898;28;20751;-51
2023/02/27 02:43:08;;;;;;;2.37;1.97;;;-1.30;99.90;;;;;;5044393;28;20212;-53
2023/02/27 02:45:43;;;;;;;7.20;1.67;;;-1.40;99.90;;;;;;5037631;28;20283;-51
2023/02/27 02:48:17;;;;;;;2.40;1.83;;;-1.40;99.90;;;;;;5045586;28;20588;-56
2023/02/27 02:50:50;;;;;;;6.40;2.03;;;-1.30;99.90;;;;;;5056314;28;20302;-54
2023/02/27 02:53:27;;;;;;;2.03;1.83;;;-1.30;99.90;;;;;;5047732;28;20246;-53
2023/02/27 02:56:04;;;;;;;3.03;1.83;;;-1.30;99.90;;;;;;5053000;28;20832;-51
2023/02/27 02:58:37;;;;;;;6.83;1.73;;;-1.20;99.90;;;;;;5044657;28;20203;-51
2023/02/27 03:01:11;;;;;;;2.10;1.90;;;-1.20;99.90;;;;;;5045464;28;20235;-56
2023/02/27 03:03:44;;;;;;;5.43;1.80;;;-1.20;99.90;;;;;;5053937;28;20330;-50
2023/02/27 03:06:17;;;;;;;3.10;2.00;;;-1.20;99.90;;;;;;5041220;28;20216;-54
2023/02/27 03:08:49;;;;;;;1.83;1.67;;;-1.20;99.90;;;;;;5047773;28;20696;-53
2023/02/27 03:11:17;;;;;;;3.63;1.90;;;-1.20;99.90;;;;;;5040744;28;20236;-54
2023/02/27 03:13:50;;;;;;;5.50;1.70;;;-1.30;99.90;;;;;;5046127;28;20224;-52
2023/02/27 03:16:23;;;;;;;1.80;1.67;;;-1.30;99.90;;;;;;5037157;28;20273;-55
2023/02/27 03:18:54;;;;;;;5.17;1.87;;;-1.30;99.90;;;;;;5054086;28;20214;-50
2023/02/27 03:21:30;;;;;;;3.73;1.73;;;-1.30;99.90;;;;;;5052415;28;20219;-52
2023/02/27 03:24:01;;;;;;;2.43;1.67;;;-1.30;99.90;;;;;;5046922;28;20197;-50
2023/02/27 03:26:33;;;;;;;3.60;2.00;;;-1.30;99.90;;;;;;5038385;28;20201;-52
2023/02/27 03:29:03;;;;;;;2.20;1.63;;;-1.30;99.90;;;;;;5042483;28;20209;-56
2023/02/27 03:31:37;;;;;;;3.67;2.07;;;-1.30;99.90;;;;;;5041397;28;21745;-56
2023/02/27 03:34:12;;;;;;;3.30;2.00;;;-1.40;99.90;;;;;;5046302;28;20223;-56
2023/02/27 03:36:45;;;;;;;2.80;1.80;;;-1.50;99.90;;;;;;5043225;28;20682;-51
2023/02/27 03:39:22;;;;;;;2.93;1.77;;;-1.60;99.90;;;;;;5036737;28;20222;-51
2023/02/27 03:41:54;;;;;;;4.07;1.90;;;-1.70;99.90;;;;;;5042806;28;20627;-52
2023/02/27 03:44:39;;;;;;;4.00;2.23;;;-1.80;99.90;;;;;;5036013;28;20200;-51
2023/02/27 03:47:07;;;;;;;3.10;1.83;;;-1.90;99.90;;;;;;5035950;28;20669;-54
2023/02/27 03:49:34;;;;;;;1.90;1.70;;;-1.90;99.90;;;;;;5046573;28;20192;-53
2023/02/27 03:52:02;;;;;;;5.37;2.00;;;-1.90;99.90;;;;;;5041753;28;20238;-54
2023/02/27 03:54:34;;;;;;;3.13;2.00;;;-1.90;99.90;;;;;;5040765;28;20286;-52
2023/02/27 03:57:04;;;;;;;5.57;2.80;;;-1.80;99.90;;;;;;5042699;28;20199;-55
2023/02/27 03:59:32;;;;;;;3.10;2.07;;;-1.80;99.90;;;;;;5044804;28;20376;-51
2023/02/27 04:02:01;;;;;;;3.57;1.53;;;-1.70;99.90;;;;;;5044082;28;20255;-52
2023/02/27 04:04:31;;;;;;;1.93;1.57;;;-1.70;99.90;;;;;;5031385;28;20902;-51
2023/02/27 04:07:23;;;;;;;3.23;2.00;;;-1.70;99.90;;;;;;5047552;28;20210;-54
2023/02/27 04:10:29;;;;;;;3.60;1.90;;;-1.80;99.90;;;;;;5041100;28;20715;-49
2023/02/27 04:13:23;;;;;;;2.33;2.03;;;-1.80;99.90;;;;;;5043936;28;20237;-52
2023/02/27 04:16:04;;;;;;;3.97;2.30;;;-1.80;99.90;;;;;;5040175;28;20215;-54
2023/02/27 04:18:43;;;;;;;4.77;2.37;;;-1.80;99.90;;;;;;5040677;28;20435;-52
2023/02/27 04:21:17;;;;;;;4.13;2.10;;;-1.70;99.90;;;;;;5038856;28;20232;-52
2023/02/27 04:23:51;;;;;;;4.37;2.27;;;-1.70;99.90;;;;;;5044060;28;20195;-51
2023/02/27 04:26:24;;;;;;;2.30;2.10;;;-1.60;99.90;;;;;;5042062;28;20689;-53
2023/02/27 04:29:03;;;;;;;3.83;2.57;;;-1.60;99.90;;;;;;5042804;28;20212;-51
2023/02/27 04:31:34;;;;;;;2.90;2.70;;;-1.60;99.90;;;;;;5040493;28;20230;-52
2023/02/27 04:34:06;;;;;;;8.50;2.43;;;-1.50;99.90;;;;;;5048022;28;20288;-52
2023/02/27 04:36:41;;;;;;;5.00;2.93;;;-1.50;99.90;;;;;;5041875;28;20567;-52
2023/02/27 04:39:19;;;;;;;4.20;2.77;;;-1.40;99.90;;;;;;5043992;28;20231;-52
2023/02/27 04:41:54;;;;;;;8.00;3.27;;;-1.40;99.90;;;;;;5042476;28;20227;-50
2023/02/27 04:44:25;;;;;;;4.47;2.60;;;-1.40;99.90;;;;;;5042265;28;20219;-49
2023/02/27 04:46:55;;;;;;;6.07;3.10;;;-1.40;99.90;;;;;;5047568;28;20203;-53
2023/02/27 04:49:26;;;;;;;6.40;3.70;;;-1.30;99.90;;;;;;5046854;28;20199;-54
2023/02/27 04:52:00;;;;;;;5.77;3.27;;;-1.30;99.90;;;;;;5034663;28;20224;-51
2023/02/27 04:54:34;;;;;;;6.73;3.50;;;-1.30;99.90;;;;;;5051686;28;20215;-55
2023/02/27 04:57:05;;;;;;;4.57;3.37;;;-1.30;99.90;;;;;;5039149;28;20223;-54
2023/02/27 04:59:39;;;;;;;5.33;3.90;;;-1.30;99.90;;;;;;5050418;28;20208;-53
2023/02/27 05:02:11;;;;;;;6.03;3.07;;;-1.30;99.90;;;;;;5040098;28;20230;-55
2023/02/27 05:04:41;;;;;;;4.60;2.50;;;-1.20;99.90;;;;;;5042730;28;20286;-52
2023/02/27 05:07:11;;;;;;;2.97;2.77;;;-1.20;99.90;;;;;;5030678;28;20266;-56
2023/02/27 05:09:42;;;;;;;5.77;3.03;;;-1.30;99.90;;;;;;5043059;28;20212;-54
2023/02/27 05:12:15;;;;;;;6.73;2.83;;;-1.20;99.90;;;;;;5039513;28;20230;-56
2023/02/27 05:14:49;;;;;;;6.23;3.20;;;-1.20;99.90;;;;;;5040582;28;20708;-53
2023/02/27 05:17:21;;;;;;;4.07;3.10;;;-1.30;99.90;;;;;;5041318;28;20204;-53
2023/02/27 05:19:48;;;;;;;4.33;3.30;;;-1.20;99.90;;;;;;5046513;28;20204;-57
2023/02/27 05:22:24;;;;;;;4.90;3.33;;;-1.30;99.90;;;;;;5035506;28;20246;-55
2023/02/27 05:24:57;;;;;;;5.27;3.13;;;-1.30;99.90;;;;;;5048054;28;20916;-57
2023/02/27 05:27:32;;;;;;;4.50;2.90;;;-1.20;99.90;;;;;;5039084;28;20223;-53
2023/02/27 05:30:04;;;;;;;9.20;4.07;;;-1.20;99.90;;;;;;5053752;28;20191;-53
2023/02/27 05:32:35;;;;;;;5.40;3.33;;;-1.30;99.90;;;;;;5036356;28;20210;-49
2023/02/27 05:35:11;;;;;;;4.47;3.07;;;-1.30;99.90;;;;;;5041893;28;20222;-56
2023/02/27 05:37:43;;;;;;;6.47;3.40;;;-1.30;99.90;;;;;;5037968;28;20621;-55
2023/02/27 05:40:14;;;;;;;6.77;3.80;;;-1.30;99.90;;;;;;5044812;28;20219;-55
2023/02/27 05:42:44;;;;;;;4.43;3.10;;;-1.30;99.90;;;;;;5040725;28;20222;-52
2023/02/27 05:45:17;;;;;;;3.83;3.20;;;-1.30;99.90;;;;;;5050271;28;20295;-53
2023/02/27 05:47:49;;;;;;;6.23;3.83;;;-1.40;99.90;;;;;;5034650;28;20258;-53
2023/02/27 05:50:20;;;;;;;5.27;3.60;;;-1.30;99.90;;;;;;5048477;28;20232;-56
2023/02/27 05:52:48;;;;;;;6.93;3.50;;;-1.30;99.90;;;;;;5049955;28;20218;-54
2023/02/27 05:55:21;;;;;;;7.23;3.77;;;-1.30;99.90;;;;;;5040258;28;20531;-52
2023/02/27 05:57:53;;;;;;;9.57;3.77;;;-1.30;99.90;;;;;;5041282;28;20204;-51
2023/02/27 06:00:29;;;;;;;4.07;3.40;;;-1.30;99.90;;;;;;5044481;28;20301;-58
2023/02/27 06:02:56;;;;;;;8.67;4.23;;;-1.30;99.90;;;;;;5045356;28;20206;-58
2023/02/27 06:05:26;;;;;;;5.10;4.10;;;-1.30;99.90;;;;;;5043906;28;20300;-56
2023/02/27 06:07:53;;;;;;;7.47;3.80;;;-1.30;99.90;;;;;;5057855;28;20435;-56
2023/02/27 06:10:42;;;;;;;7.03;3.97;;;-1.30;99.90;;;;;;5040823;28;20301;-54
2023/02/27 06:13:08;;;;;;;6.50;3.93;;;-1.30;99.90;;;;;;5043325;28;20199;-52
2023/02/27 06:15:59;;;;;;;5.40;3.50;;;-1.30;99.90;;;;;;5051348;28;20374;-51
2023/02/27 06:18:25;;;;;;;4.73;3.60;;;-1.30;99.90;;;;;;5050356;28;20200;-51
2023/02/27 06:20:52;;;;;;;4.70;3.87;;;-1.40;99.90;;;;;;5065619;28;20220;-50
2023/02/27 06:23:19;;;;;;;6.73;4.30;;;-1.50;99.90;;;;;;5044037;28;20761;-53
2023/02/27 06:25:45;;;;;;;7.20;4.00;;;-1.50;99.90;;;;;;5045100;28;20668;-53
2023/02/27 06:28:12;;;;;;;8.40;3.87;;;-1.50;99.90;;;;;;5042775;28;20238;-54
2023/02/27 06:30:39;;;;;;;8.47;4.57;;;-1.50;99.90;;;;;;5051290;28;20221;-54
2023/02/27 06:33:08;;;;;;;5.33;3.10;;;-1.40;99.90;;;;;;5054894;28;20669;-53
2023/02/27 06:35:35;;;;;;;7.73;3.67;;;-1.50;99.90;;;;;;5046357;28;20218;-52
2023/02/27 06:38:03;;;;;;;4.80;3.30;;;-1.50;99.90;;;;;;5058258;28;20214;-53
2023/02/27 06:40:30;;;;;;;9.47;3.90;;;-1.60;99.90;;;;;;5049873;28;21608;-53
2023/02/27 06:42:58;;;;;;;5.93;3.87;;;-1.60;99.90;;;;;;5040493;28;20203;-49
2023/02/27 06:45:25;;;;;;;13.53;4.27;;;-1.60;99.90;;;;;;5041275;28;20201;-50
2023/02/27 06:47:51;;;;;;;4.37;3.70;;;-1.50;99.90;;;;;;5051234;28;20575;-50
2023/02/27 06:50:20;;;;;;;6.33;3.50;;;-1.60;99.90;;;;;;5030526;28;21300;-52
2023/02/27 06:52:47;;;;;;;5.13;3.40;;;-1.60;99.90;;;;;;5042994;28;20246;-52
2023/02/27 06:55:18;;;;;;;7.07;3.70;;;-1.60;99.90;;;;;;5041481;28;20226;-54
2023/02/27 06:57:46;;;;;;;11.60;5.50;;;-1.60;99.90;;;;;;5043337;28;20212;-54
2023/02/27 07:00:14;;;;;;;5.73;4.67;;;-1.50;99.90;;;;;;5038910;28;20230;-53
2023/02/27 07:02:42;;;;;;;6.73;5.07;;;-1.50;99.90;;;;;;5050364;28;20542;-52
2023/02/27 07:05:11;;;;;;;9.80;5.60;;;-1.40;99.90;;;;;;5037822;28;20206;-54
2023/02/27 07:07:40;;;;;;;4.37;3.97;;;-1.40;99.90;;;;;;5051759;28;20199;-53
2023/02/27 07:10:10;;;;;;;7.50;4.37;;;-1.30;99.90;;;;;;5040834;28;20277;-54
2023/02/27 07:12:37;;;;;;;8.13;5.13;;;-1.20;99.90;;;;;;5043484;28;20200;-63
2023/02/27 07:15:05;;;;;;;6.93;4.80;;;-1.10;99.90;;;;;;5031726;28;20234;-54
2023/02/27 07:17:32;;;;;;;11.73;4.33;;;-1.10;99.90;;;;;;5043652;28;20208;-55
2023/02/27 07:19:59;;;;;;;10.13;5.33;;;-1.00;99.90;;;;;;5039194;28;20209;-55
2023/02/27 07:22:26;;;;;;;6.77;4.90;;;-1.00;99.90;;;;;;5045498;28;20560;-55
2023/02/27 07:24:54;;;;;;;12.03;5.60;;;-0.90;99.90;;;;;;5046437;28;20551;-55
2023/02/27 07:27:22;;;;;;;9.83;5.50;;;-0.80;99.90;;;;;;5064694;28;20198;-55
2023/02/27 07:29:49;;;;;;;10.03;4.87;;;-0.80;99.90;;;;;;5046428;28;20704;-56
2023/02/27 07:32:15;;;;;;;6.90;5.23;;;-0.70;99.90;;;;;;5049330;28;20204;-55
2023/02/27 07:34:44;;;;;;;7.97;4.67;;;-0.70;99.90;;;;;;5060877;28;20211;-53
2023/02/27 07:37:10;;;;;;;5.47;4.90;;;-0.60;99.90;;;;;;5037920;28;20211;-55
2023/02/27 07:39:37;;;;;;;6.93;4.60;;;-0.60;99.90;;;;;;5042181;28;20541;-55
2023/02/27 07:42:06;;;;;;;9.00;5.30;;;-0.50;99.90;;;;;;5042624;28;20320;-55
2023/02/27 07:44:34;;;;;;;7.33;4.40;;;-0.40;99.90;;;;;;5037086;28;20305;-51
2023/02/27 07:47:00;;;;;;;7.40;5.00;;;-0.20;99.90;;;;;;5044123;28;20196;-56
2023/02/27 07:49:28;;;;;;;8.20;4.40;;;-0.10;99.90;;;;;;5046924;28;20242;-54
2023/02/27 07:51:55;;;;;;;8.47;4.80;;;0.00;99.90;;;;;;5037791;28;20282;-54
2023/02/27 07:54:21;;;;;;;7.30;5.60;;;0.10;99.90;;;;;;5046049;28;20212;-51
2023/02/27 07:56:49;;;;;;;7.87;4.50;;;0.20;99.90;;;;;;5047949;28;20197;-53
2023/02/27 07:59:17;;;;;;;10.97;5.13;;;0.30;99.90;;;;;;5044711;28;20194;-55
2023/02/27 08:02:03;;;;;;;9.93;4.70;;;0.40;99.90;;;;;;5034153;28;22821;-55
2023/02/27 08:04:52;;;;;;;12.67;5.00;;;0.50;99.90;;;;;;5045881;28;20322;-52
2023/02/27 08:07:19;;;;;;;10.47;4.73;;;0.70;99.90;;;;;;5054972;28;20573;-53
2023/02/27 08:09:45;;;;;;;11.50;4.90;;;0.80;99.90;;;;;;5050528;28;20197;-55
2023/02/27 08:12:13;;;;;;;6.57;4.77;;;0.90;99.90;;;;;;5061750;28;20279;-55
2023/02/27 08:14:41;;;;;;;8.03;4.97;;;1.10;99.90;;;;;;5047391;28;20287;-51
2023/02/27 08:17:07;;;;;;;13.27;5.40;;;1.20;99.90;;;;;;5039462;28;20214;-54
2023/02/27 08:19:34;;;;;;;6.93;4.97;;;1.30;99.90;;;;;;5042387;28;20216;-51
2023/02/27 08:22:02;;;;;;;8.50;4.80;;;1.40;99.90;;;;;;5038007;28;20254;-52
2023/02/27 08:24:30;;;;;;;10.93;4.50;;;1.50;99.90;;;;;;5048498;28;20680;-51
2023/02/27 08:26:57;;;;;;;10.53;4.80;;;1.60;99.90;;;;;;5048282;28;20184;-52
2023/02/27 08:29:23;;;;;;;9.73;4.37;;;1.70;99.90;;;;;;5043912;28;20257;-52
2023/02/27 08:32:14;;;;;;;8.77;4.27;;;1.80;99.90;;;;;;5048580;28;20236;-54
2023/02/27 08:34:41;;;;;;;6.90;4.17;;;1.90;99.90;;;;;;5033519;28;20268;-49
2023/02/27 08:37:08;;;;;;;7.37;4.53;;;2.00;99.90;;;;;;5045495;28;20605;-55
2023/02/27 08:39:35;;;;;;;6.00;3.60;;;2.00;99.90;;;;;;5041267;28;20217;-52
2023/02/27 08:42:24;;;;;;;5.63;3.67;;;2.10;99.90;;;;;;5062742;28;20229;-51
2023/02/27 08:45:13;;;;;;;10.73;4.20;;;2.20;99.90;;;;;;5048942;28;20343;-53
2023/02/27 08:47:45;;;;;;;7.00;3.87;;;2.30;99.90;;;;;;5040767;28;20206;-50
2023/02/27 08:50:12;;;;;;;6.50;3.07;;;2.40;99.90;;;;;;5041935;28;20229;-51
2023/02/27 08:52:40;;;;;;;8.23;3.47;;;2.50;99.90;;;;;;5041343;28;20230;-51
2023/02/27 08:55:08;;;;;;;7.10;2.83;;;2.60;99.90;;;;;;5040071;28;20298;-54
2023/02/27 08:57:35;;;;;;;4.97;3.00;;;2.70;99.90;;;;;;5043745;28;20285;-54
2023/02/27 09:00:04;;;;;;;8.73;3.07;;;2.80;99.90;;;;;;5052141;28;20272;-51
2023/02/27 09:02:32;;;;;;;10.53;3.50;;;2.90;99.90;;;;;;5043704;28;20274;-50
2023/02/27 09:05:00;;;;;;;5.90;2.90;;;3.10;99.90;;;;;;5036302;28;20280;-50
2023/02/27 09:07:26;;;;;;;7.13;2.80;;;3.20;99.90;;;;;;5045392;28;20203;-54
2023/02/27 09:09:53;;;;;;;5.73;2.53;;;3.30;99.90;;;;;;5034455;28;20206;-53
2023/02/27 09:12:19;;;;;;;6.90;2.40;;;3.40;99.90;;;;;;5046021;28;20195;-54
2023/02/27 09:14:46;;;;;;;5.07;2.40;;;3.50;99.90;;;;;;5039206;28;20928;-53
2023/02/27 09:17:13;;;;;;;8.10;2.87;;;3.50;99.90;;;;;;5043126;28;20282;-51
2023/02/27 09:19:39;;;;;;;9.30;2.67;;;3.50;99.90;;;;;;5030130;28;20206;-49
2023/02/27 09:22:07;;;;;;;8.43;2.60;;;3.50;99.90;;;;;;5042761;28;20230;-52
2023/02/27 09:24:34;;;;;;;3.27;2.33;;;3.50;99.90;;;;;;5041119;28;20210;-52
2023/02/27 09:27:01;;;;;;;7.07;2.43;;;3.60;99.90;;;;;;5043336;28;20261;-53
2023/02/27 09:29:28;;;;;;;2.50;2.30;;;3.60;99.90;;;;;;5050667;28;20670;-49
2023/02/27 09:31:55;;;;;;;4.00;2.30;;;3.60;99.90;;;;;;5040770;28;20245;-53
2023/02/27 09:34:21;;;;;;;6.87;2.33;;;3.60;99.90;;;;;;5043149;28;20202;-49
2023/02/27 09:36:48;;;;;;;5.43;2.00;;;3.70;99.90;;;;;;5043041;28;20936;-53
2023/02/27 09:39:16;;;;;;;3.63;1.73;;;3.80;99.90;;;;;;5047509;28;20255;-51
2023/02/27 09:41:54;;;;;;;2.50;1.97;;;3.80;99.90;;;;;;5044118;28;20226;-51
2023/02/27 09:44:30;;;;;;;5.20;2.13;;;3.90;99.90;;;;;;5046707;28;20667;-50
2023/02/27 09:46:57;;;;;;;4.93;2.00;;;3.90;99.90;;;;;;5044803;28;20197;-50
2023/02/27 09:49:27;;;;;;;3.00;1.80;;;4.00;99.90;;;;;;5046966;28;20741;-51
2023/02/27 09:51:55;;;;;;;2.83;1.97;;;4.00;99.90;;;;;;5035871;28;20225;-51
2023/02/27 09:54:25;;;;;;;3.73;1.87;;;4.00;99.90;;;;;;5045762;28;20191;-52
2023/02/27 09:56:58;;;;;;;5.10;1.90;;;4.00;99.90;;;;;;5043054;28;20223;-50
2023/02/27 09:59:34;;;;;;;2.00;1.63;;;4.00;99.90;;;;;;5057203;28;20661;-51
2023/02/27 10:02:12;;;;;;;7.20;2.10;;;4.00;99.90;;;;;;5048810;28;20222;-49
2023/02/27 10:04:50;;;;;;;5.07;1.70;;;4.00;99.90;;;;;;5048724;28;20237;-52
2023/02/27 10:07:26;;;;;;;5.13;1.63;;;4.00;99.90;;;;;;5040628;28;20202;-51
2023/02/27 10:10:03;;;;;;;4.00;2.00;;;4.10;99.90;;;;;;5043660;28;20473;-54
2023/02/27 10:12:52;;;;;;;3.80;1.60;;;4.20;99.90;;;;;;5048797;28;20766;-52
2023/02/27 10:15:25;;;;;;;5.67;1.40;;;4.20;99.90;;;;;;5053772;28;20214;-50
2023/02/27 10:17:56;;;;;;;2.37;1.43;;;4.30;99.90;;;;;;5049854;28;20426;-54
2023/02/27 10:20:26;;;;;;;5.80;1.47;;;4.40;99.90;;;;;;5049707;28;20223;-54
2023/02/27 10:22:56;;;;;;;5.30;1.10;;;4.40;99.90;;;;;;5037010;28;20415;-53
2023/02/27 10:25:25;;;;;;;3.63;1.50;;;4.50;99.90;;;;;;5051448;28;20568;-53
2023/02/27 10:27:56;;;;;;;1.83;1.23;;;4.60;99.90;;;;;;5045116;28;20199;-52
2023/02/27 10:30:25;;;;;;;3.00;1.77;;;4.70;99.90;;;;;;5050344;28;20309;-51
2023/02/27 10:32:56;;;;;;;2.33;1.20;;;4.80;99.90;;;;;;5052856;28;20195;-51
2023/02/27 10:35:30;;;;;;;5.17;1.67;;;4.80;99.90;;;;;;5052690;28;20218;-51
2023/02/27 10:38:00;;;;;;;8.07;1.80;;;4.80;99.90;;;;;;5036142;28;20195;-53
2023/02/27 10:40:30;;;;;;;1.13;1.03;;;4.90;99.90;;;;;;5050254;28;20228;-52
2023/02/27 10:43:00;;;;;;;2.63;1.33;;;5.00;99.90;;;;;;5039552;28;20231;-54
2023/02/27 10:45:27;;;;;;;2.77;1.30;;;5.00;99.90;;;;;;5045097;28;20203;-51
2023/02/27 10:47:54;;;;;;;6.07;1.17;;;5.10;99.90;;;;;;5042448;28;20278;-50
2023/02/27 10:50:23;;;;;;;4.37;1.57;;;5.00;99.90;;;;;;5045160;28;20230;-55
2023/02/27 10:52:52;;;;;;;5.37;1.30;;;4.90;99.90;;;;;;5030996;28;20207;-52
2023/02/27 10:55:23;;;;;;;3.33;1.80;;;5.00;99.90;;;;;;5051575;28;20223;-52
2023/02/27 10:57:50;;;;;;;4.77;2.13;;;5.00;99.90;;;;;;5037345;28;20775;-51
2023/02/27 11:00:40;;;;;;;4.37;1.90;;;5.10;99.90;;;;;;5057801;28;20277;-49
2023/02/27 11:03:15;;;;;;;4.77;2.37;;;5.20;99.90;;;;;;5057436;28;20372;-52
2023/02/27 11:05:43;;;;;;;6.47;1.83;;;5.30;99.90;;;;;;5041903;28;20640;-53
2023/02/27 11:08:20;;;;;;;6.50;1.87;;;5.30;99.90;;;;;;5038281;28;20219;-54
2023/02/27 11:10:56;;;;;;;4.47;2.07;;;5.40;99.90;;;;;;5041980;28;20928;-53
2023/02/27 11:13:25;;;;;;;5.97;2.27;;;5.50;99.90;;;;;;5045958;28;20205;-52
2023/02/27 11:16:09;;;;;;;3.03;1.77;;;5.50;99.90;;;;;;5048556;28;20276;-53
2023/02/27 11:18:38;;;;;;;3.70;2.50;;;5.50;99.90;;;;;;5049190;28;20207;-51
2023/02/27 11:21:27;;;;;;;6.30;2.40;;;5.50;99.90;;;;;;5051214;28;20223;-52
2023/02/27 11:23:58;;;;;;;2.83;2.07;;;5.60;99.90;;;;;;5029684;28;20246;-55
2023/02/27 11:26:29;;;;;;;6.23;2.70;;;5.70;99.90;;;;;;5049003;28;20191;-52
2023/02/27 11:29:13;;;;;;;5.60;2.07;;;5.50;99.90;;;;;;5046658;28;20406;-55
2023/02/27 11:31:45;;;;;;;3.50;2.23;;;5.50;99.90;;;;;;5049412;28;20689;-51
2023/02/27 11:34:20;;;;;;;2.37;1.73;;;5.50;99.90;;;;;;5053391;28;20203;-51
2023/02/27 11:36:51;;;;;;;2.00;1.80;;;5.50;99.90;;;;;;5040853;28;20215;-52
2023/02/27 11:39:25;;;;;;;4.00;2.70;;;5.50;99.90;;;;;;5042319;28;20198;-55
2023/02/27 11:41:53;;;;;;;4.17;2.27;;;5.50;99.90;;;;;;5038974;28;20220;-55
2023/02/27 11:44:26;;;;;;;2.50;1.70;;;5.50;99.90;;;;;;5049519;28;20205;-54
2023/02/27 11:47:06;;;;;;;3.67;2.00;;;5.50;99.90;;;;;;5042891;28;20187;-56
2023/02/27 11:49:39;;;;;;;4.70;1.70;;;5.60;99.90;;;;;;5052824;28;20684;-52
2023/02/27 11:52:12;;;;;;;6.60;1.70;;;5.60;99.90;;;;;;5051672;28;20215;-56
2023/02/27 11:54:40;;;;;;;1.90;1.63;;;5.70;99.90;;;;;;5037387;28;20649;-53
2023/02/27 11:57:18;;;;;;;3.57;1.70;;;5.80;99.90;;;;;;5042279;28;20770;-55
2023/02/27 11:59:50;;;;;;;3.87;1.37;;;5.90;99.90;;;;;;5040441;28;20356;-56
2023/02/27 12:02:22;;;;;;;3.77;1.60;;;6.00;99.90;;;;;;5057934;28;20222;-52
2023/02/27 12:04:53;;;;;;;7.60;1.50;;;6.00;99.90;;;;;;5041116;28;20211;-52
2023/02/27 12:07:26;;;;;;;4.33;1.57;;;6.10;99.90;;;;;;5052167;28;20186;-56
2023/02/27 12:10:13;;;;;;;6.00;1.50;;;6.00;99.90;;;;;;5038688;28;20566;-56
2023/02/27 12:12:46;;;;;;;2.00;1.40;;;6.00;99.90;;;;;;5046436;28;20202;-54
2023/02/27 12:15:26;;;;;;;0.87;0.87;;;6.10;99.90;;;;;;5040100;28;20532;-51
2023/02/27 12:17:59;;;;;;;4.20;1.30;;;6.10;99.90;;;;;;5047329;28;20202;-55
2023/02/27 12:20:30;;;;;;;1.40;0.80;;;6.20;99.90;;;;;;5046575;28;20223;-55
2023/02/27 12:22:56;;;;;;;3.47;1.20;;;6.10;99.90;;;;;;5046227;28;20202;-51
2023/02/27 12:25:36;;;;;;;1.07;0.83;;;6.10;99.90;;;;;;5037564;28;20195;-56
2023/02/27 12:28:12;;;;;;;2.90;0.80;;;6.10;99.90;;;;;;5034929;28;20287;-53
2023/02/27 12:30:47;;;;;;;1.37;0.83;;;6.10;99.90;;;;;;5052057;28;20556;-53
2023/02/27 12:33:20;;;;;;;2.50;0.80;;;6.30;99.90;;;;;;5057593;28;20191;-52
2023/02/27 12:35:55;;;;;;;2.30;0.90;;;6.40;99.90;;;;;;5057520;28;20209;-54
2023/02/27 12:38:23;;;;;;;1.93;0.83;;;6.40;99.90;;;;;;5037604;28;20868;-51
2023/02/27 12:41:05;;;;;;;1.77;1.00;;;6.50;99.90;;;;;;5045663;28;20233;-52
2023/02/27 12:43:40;;;;;;;1.93;1.07;;;6.50;99.90;;;;;;5030804;28;20199;-49
2023/02/27 12:46:26;;;;;;;1.97;0.97;;;6.50;99.90;;;;;;5050280;28;20207;-48
2023/02/27 12:49:08;;;;;;;1.40;0.70;;;6.50;99.90;;;;;;5044727;28;20575;-53
2023/02/27 12:51:43;;;;;;;0.63;0.60;;;6.50;99.90;;;;;;5050577;28;20218;-50
2023/02/27 12:54:19;;;;;;;2.20;1.00;;;6.60;99.90;;;;;;5045621;28;20249;-49
2023/02/27 12:57:00;;;;;;;2.67;0.90;;;6.50;99.90;;;;;;5041937;28;20214;-50
2023/02/27 12:59:40;;;;;;;3.40;1.00;;;6.60;99.90;;;;;;5044369;28;20922;-52
2023/02/27 13:02:22;;;;;;;0.93;0.77;;;6.70;99.90;;;;;;5043007;28;20735;-54
2023/02/27 13:05:01;;;;;;;4.13;1.40;;;6.80;99.90;;;;;;5051635;28;20244;-54
2023/02/27 13:07:33;;;;;;;1.63;0.80;;;6.90;99.90;;;;;;5060489;28;20287;-53
2023/02/27 13:10:10;;;;;;;1.73;0.80;;;7.00;99.90;;;;;;5047877;28;20203;-51
2023/02/27 13:12:42;;;;;;;3.70;0.60;;;7.10;99.90;;;;;;5052897;28;20634;-53
2023/02/27 13:15:17;;;;;;;2.87;1.10;;;7.10;99.90;;;;;;5030815;28;20219;-51